Flight Track Log - Related Links

Times and Time Zones

All times are in EDT time to prevent confusion due to time zone crossing. See the N445JA flight status page for this flight to view local times or setup timezone preferences in your user account.

Time Position Orientation Groundspeed Altitude Reporting Facility
EDT Latitude Longitude Course Direction KTS MPH feet Rate Location/Type
Tue 11:58:25 PM 26.2003 -80.1522 75° East 94 108 800  Level Miami Center
Tue 11:59:08 PM 26.2150 -80.1447 25° Northeast 102 117 1,200 590 Climbing Miami Center
Tue 11:59:26 PM 26.2214 -80.1514 317° Northwest 113 130 1,400 600 Climbing Miami Center
Wed 12:00:08 AM 26.2336 -80.1653 314° West 109 125 1,800 492 Climbing Miami Center
Wed 12:00:27 AM 26.2428 -80.1764 313° West 113 130 1,900 621 Climbing Miami Center
Wed 12:01:06 AM 26.2628 -80.1881 332° Northwest 113 130 2,400 727 Climbing Miami Center
Wed 12:02:06 AM 26.2922 -80.1833 North 106 122 3,100 639 Climbing Miami Center
Wed 12:03:08 AM 26.3219 -80.1758 13° North 106 122 3,700 595 Climbing Miami Center
Wed 12:04:07 AM 26.3519 -80.1761 360° North 106 122 4,300 650 Climbing Miami Center
Wed 12:05:08 AM 26.3822 -80.1786 356° North 109 125 5,000 738 Climbing Miami Center
Wed 12:06:09 AM 26.4125 -80.1758 North 109 125 5,800 744 Climbing Miami Center
Wed 12:07:09 AM 26.4442 -80.1797 354° North 112 129 6,500 639 Climbing Miami Center
Wed 12:08:11 AM 26.4781 -80.1833 355° North 115 132 7,100 295 Climbing Miami Center
Wed 12:09:11 AM 26.5167 -80.1858 357° North 138 159 7,100  Level Miami Center
Wed 12:10:12 AM 26.5597 -80.1847 North 153 176 7,100  Level Miami Center
Wed 12:11:12 AM 26.6019 -80.1783 North 153 176 7,100  Level Miami Center
Wed 12:12:13 AM 26.6453 -80.1778 North 154 177 7,100 50 Level Miami Center
Wed 12:13:11 AM 26.6872 -80.1811 356° North 154 177 7,200 -51 Climbing Miami Center
Wed 12:14:11 AM 26.7292 -80.1858 354° North 153 176 7,000 -49 Descending Miami Center
Wed 12:15:14 AM 26.7722 -80.1886 357° North 154 177 7,100 98 Climbing Miami Center
Wed 12:16:14 AM 26.8156 -80.1797 10° North 153 176 7,200  Climbing Miami Center
Wed 12:17:15 AM 26.8569 -80.1778 North 153 176 7,100 -50 Descending Miami Center
Wed 12:18:13 AM 26.9000 -80.1886 347° North 154 177 7,100  Level Miami Center
Wed 12:19:15 AM 26.9389 -80.2050 339° North 154 177 7,100  Level Miami Center
Wed 12:20:16 AM 26.9817 -80.2175 345° North 154 177 7,100 51 Level Miami Center
Wed 12:21:13 AM 27.0206 -80.2286 346° North 150 173 7,200 51 Climbing Miami Center
Wed 12:22:14 AM 27.0653 -80.2367 351° North 153 176 7,200  Level Miami Center
Wed 12:23:15 AM 27.1042 -80.2500 343° North 153 176 7,200 -50 Level Miami Center
Wed 12:24:14 AM 27.1483 -80.2647 343° North 155 178 7,100 -49 Descending Miami Center
Wed 12:25:17 AM 27.1867 -80.2797 341° North 154 177 7,100  Level Miami Center
Wed 12:26:17 AM 27.2267 -80.3003 335° Northwest 153 176 7,100  Level Miami Center
Wed 12:27:18 AM 27.2647 -80.3175 338° Northwest 153 176 7,100  Level Miami Center
Wed 12:28:15 AM 27.3069 -80.3333 342° North 152 175 7,100 -50 Level Miami Center
Wed 12:29:17 AM 27.3461 -80.3458 344° North 152 175 7,000 -45 Descending Miami Center
Wed 12:30:29 AM 27.3906 -80.3567 348° North 153 176 7,000  Level Miami Center
Wed 12:31:28 AM 27.4419 -80.3686 348° North 154 177 7,000  Level Miami Center
Wed 12:32:31 AM 27.4833 -80.3767 350° North 156 180 7,000  Level Miami Center
Wed 12:33:29 AM 27.5253 -80.3936 340° North 155 178 7,000  Level Miami Center
Wed 12:34:32 AM 27.5642 -80.4125 337° Northwest 156 180 7,000  Level Miami Center
Wed 12:35:32 AM 27.6069 -80.4247 346° North 155 178 7,000  Level Miami Center
Wed 12:36:33 AM 27.6447 -80.4442 335° Northwest 155 178 7,000 50 Level Miami Center
Wed 12:37:32 AM 27.6867 -80.4625 339° North 155 178 7,100 50 Climbing Miami Center
Wed 12:38:33 AM 27.7236 -80.4831 334° Northwest 154 177 7,100  Level Miami Center
Wed 12:39:31 AM 27.7656 -80.5022 338° Northwest 155 178 7,100 -50 Level Miami Center
Wed 12:40:34 AM 27.8058 -80.5150 344° North 155 178 7,000 -49 Descending Miami Center
Wed 12:41:34 AM 27.8483 -80.5347 338° Northwest 155 178 7,000  Level Miami Center
Wed 12:42:32 AM 27.8883 -80.5494 342° North 156 180 7,000  Level Miami Center
Wed 12:43:32 AM 27.9319 -80.5658 342° North 156 180 7,000  Level Miami Center
Wed 12:44:33 AM 27.9728 -80.5767 347° North 156 180 7,000  Level Miami Center
Wed 12:45:33 AM 28.0133 -80.5983 335° Northwest 156 180 7,000  Level Miami Center
Wed 12:46:33 AM 28.0528 -80.6106 345° North 155 178 7,000  Level Miami Center
Wed 12:47:34 AM 28.0944 -80.6269 341° North 153 176 7,000  Level Miami Center
Wed 12:48:06 AM 28.1167 -80.6333 346° North 154 177 7,000  Level Orlando TRACON
Wed 12:49:12 AM 28.1667 -80.6500 344° North 152 175 7,000 -48 Level Orlando TRACON
Wed 12:50:12 AM 28.2000 -80.6667 336° Northwest 154 177 6,900 -50 Descending Orlando TRACON
Wed 12:51:12 AM 28.2500 -80.6833 344° North 153 176 6,900 50 Level Orlando TRACON
Wed 12:52:12 AM 28.2833 -80.7000 336° Northwest 151 174 7,000 53 Climbing Orlando TRACON
Wed 12:53:06 AM 28.3167 -80.7167 336° Northwest 151 174 7,000  Level Orlando TRACON
Wed 12:54:00 AM 28.3500 -80.7167 360° North 150 173 7,000  Level Orlando TRACON
Wed 12:55:06 AM 28.4000 -80.7333 344° North 152 175 7,000 -48 Level Orlando TRACON
Wed 12:56:06 AM 28.4333 -80.7500 336° Northwest 155 178 6,900  Descending Orlando TRACON
Wed 12:57:06 AM 28.4833 -80.7667 344° North 147 169 7,000 50 Climbing Orlando TRACON
Wed 12:58:06 AM 28.5167 -80.7833 336° Northwest 150 173 7,000  Level Orlando TRACON
Wed 12:59:06 AM 28.5500 -80.8000 336° Northwest 155 178 7,000  Level Orlando TRACON
Wed 01:00:06 AM 28.6000 -80.8167 344° North 154 177 7,000 -50 Level Orlando TRACON
Wed 01:01:06 AM 28.6333 -80.8333 336° Northwest 154 177 6,900  Descending Orlando TRACON
Wed 01:02:06 AM 28.6833 -80.8333 360° North 157 181 7,000  Climbing Orlando TRACON
Wed 01:03:06 AM 28.7167 -80.8500 336° Northwest 157 181 6,900  Descending Orlando TRACON
Wed 01:05:29 AM 28.8178 -80.9003 336° Northwest 156 180 7,000 29 Climbing Jacksonville Center
Wed 01:06:30 AM 28.8503 -80.9108 344° North 154 177 7,000  Level Jacksonville Center
Wed 01:07:30 AM 28.8997 -80.9303 341° North 153 176 7,000  Level Jacksonville Center
Wed 01:08:31 AM 28.9392 -80.9428 344° North 154 177 7,000 50 Level Jacksonville Center
Wed 01:09:31 AM 28.9792 -80.9611 338° Northwest 154 177 7,100 50 Climbing Jacksonville Center
Wed 01:10:31 AM 29.0194 -80.9756 343° North 154 177 7,100 -50 Level Jacksonville Center
Wed 01:11:31 AM 29.0603 -80.9886 344° North 154 177 7,000 -50 Descending Jacksonville Center
Wed 01:12:31 AM 29.1025 -81.0031 343° North 154 177 7,000 -50 Level Jacksonville Center
Wed 01:13:31 AM 29.1419 -81.0203 339° North 154 177 6,900 -200 Descending Jacksonville Center
Wed 01:14:31 AM 29.1850 -81.0400 338° Northwest 158 182 6,600 -343 Descending Jacksonville Center
Wed 01:14:41 AM 29.1925 -81.0411 353° North 167 192 6,500 -295 Descending Jacksonville Center
Wed 01:15:32 AM 29.2292 -81.0572 339° North 163 188 6,300 -216 Descending Jacksonville Center
Wed 01:16:32 AM 29.2742 -81.0689 347° North 164 189 6,100 -257 Descending Jacksonville Center
Wed 01:16:42 AM 29.2806 -81.0719 337° Northwest 165 190 6,000 -300 Descending Jacksonville Center
Wed 01:17:32 AM 29.3122 -81.0833 343° North 166 191 5,800 -492 Descending Jacksonville Center
Wed 01:17:43 AM 29.3275 -81.0947 327° Northwest 168 193 5,500 -600 Descending Jacksonville Center
Wed 01:18:32 AM 29.3522 -81.1075 336° Northwest 164 189 5,200 -300 Descending Jacksonville Center
Wed 01:18:43 AM 29.3703 -81.1100 353° North 168 193 5,200 -300 Level Jacksonville Center
Wed 01:19:32 AM 29.4047 -81.1211 344° North 164 189 4,900 -295 Descending Jacksonville Center
Wed 01:19:44 AM 29.4136 -81.1231 349° North 166 191 4,900 -200 Level Jacksonville Center
Wed 01:20:32 AM 29.4475 -81.1372 340° North 164 189 4,700 -200 Descending Jacksonville Center
Wed 01:20:44 AM 29.4567 -81.1383 354° North 162 186 4,700 -300 Level Jacksonville Center
Wed 01:21:32 AM 29.4925 -81.1539 339° North 164 189 4,400 -393 Descending Jacksonville Center
Wed 01:21:45 AM 29.4972 -81.1608 308° West 166 191 4,300 -300 Descending Jacksonville Center
Wed 01:22:32 AM 29.5333 -81.1769 339° North 165 190 4,100 -197 Descending Jacksonville Center
Wed 01:22:46 AM 29.5419 -81.1811 337° Northwest 162 186 4,100 -295 Level Jacksonville Center
Wed 01:23:33 AM 29.5778 -81.1917 346° North 165 190 3,800 -400 Descending Jacksonville Center
Wed 01:23:46 AM 29.5872 -81.1942 347° North 167 192 3,700 -400 Descending Jacksonville Center
Wed 01:24:33 AM 29.6219 -81.2078 341° North 165 190 3,400 -393 Descending Jacksonville Center
Wed 01:24:47 AM 29.6300 -81.2119 336° Northwest 164 189 3,300 -369 Descending Jacksonville Center
Wed 01:25:38 AM 29.6644 -81.2244 342° North 164 189 3,000 -295 Descending Jacksonville Center
Wed 01:25:48 AM 29.6731 -81.2300 331° Northwest 161 185 3,000 -100 Level Jacksonville Center
Wed 01:26:38 AM 29.7061 -81.2411 344° North 163 188 2,900 -100 Descending Jacksonville Center
Wed 01:26:48 AM 29.7139 -81.2453 335° Northwest 155 178 2,900 -100 Level Jacksonville Center
Wed 01:27:38 AM 29.7472 -81.2525 349° North 155 178 2,800 -100 Descending Jacksonville Center
Wed 01:27:48 AM 29.7578 -81.2578 337° Northwest 153 176 2,800 100 Level Jacksonville Center
Wed 01:28:38 AM 29.7856 -81.2650 347° North 155 178 2,900 11 Climbing Jacksonville Center
Wed 01:46:00 AM 29.7319 -81.2586 154° Southeast 163 188 3,000 Climbing Jacksonville Center
Wed 01:47:00 AM 29.6914 -81.2361 154° Southeast 162 186 3,000  Level Jacksonville Center
Wed 01:48:01 AM 29.6508 -81.2161 157° South 160 184 3,000  Level Jacksonville Center
Wed 01:49:01 AM 29.6081 -81.1958 158° South 162 186 3,000  Level Jacksonville Center
Wed 01:50:08 AM 29.5614 -81.1706 155° Southeast 162 186 3,000  Level Jacksonville Center
Wed 01:51:09 AM 29.5206 -81.1531 160° South 161 185 3,000  Level Jacksonville Center
Wed 01:52:09 AM 29.4800 -81.1306 154° Southeast 161 185 3,000 142 Level Jacksonville Center
Wed 01:53:16 AM 29.4369 -81.1153 163° South 148 170 3,300 94 Climbing Jacksonville Center
Wed 01:54:17 AM 29.3897 -81.1044 169° South 158 182 3,200 -50 Descending Jacksonville Center
Wed 01:55:17 AM 29.3483 -81.0939 167° South 159 183 3,200 -50 Level Jacksonville Center
Wed 01:56:18 AM 29.3050 -81.0833 168° South 159 183 3,100 -198 Descending Jacksonville Center
Wed 01:57:18 AM 29.2619 -81.0703 165° South 157 181 2,800 -397 Descending Jacksonville Center
Wed 01:58:19 AM 29.2189 -81.0550 163° South 157 181 2,300 -492 Descending Jacksonville Center

Login

Don't have an account? Register now (free) for customized features, flight alerts, and more!